Niagara Falls International Airport
KIAG : now visible

Airfield :











YOU CAN JOIN US ON...

 
LOGIN :

Register | Disclaimer

   EN    FR    IT 

 









Legend :    VFR   Marginal VFR   IFR   Intensive IFR   Very Intensive IFR
Visi :
Ceiling :
>= 8 km
>= 3000ft
5 to 8 km
1000 to 3000 ft
1500m to 5 km
500 to 1000 ft
800 to 1500m
200 to 500 ft
< 800m
< 200 ft
Symbols :   Thunderstorms  Fog  Heavy snow  Heavy precipitations  Wind > 20 kt






- Airport Elevation : 589 ft
- IATA code : IAG


KIAG - Niagara Falls International

CURRENT METAR :
  • 120253Z 26008KT CLR M11/M16 A3049 RMK AO2 SLP347 T11111156 51024 $

EXPIRED METARs :
  • 120153Z AUTO 27008KT 10SM CLR M10/M15 A3047 RMK AO2 SLP340 T11001150 $
  • 120053Z 28014KT 10SM CLR M08/M14 A3045 RMK AO2 SLP333 T10781144 $

TAF KIAG
Valid from the 12 at 00:00 until the 13 at 00:00 UTC


112337Z 1200/1224 28013G20KT P6SM SCT025 SCT040
FM120300 27013G19KT P6SM SKC
FM120700 25007KT P6SM SKC
FM121600 20004KT P6SM SCT025 BKN035
FM121800 18006KT P6SM BKN070



MET'MAP, your aeronautical weather chart ! - Copyright ORBIFLY December 2007 - Disclaimer

ORBIFLY MET'MAP TEAM :

Programming & Development : Alexandra Zaïnal
Concept & original design : Baudouin d'Aumeries
Assistance for programming : Marc-Olivier Méhu
Technical & hardware support : Manuel Goepfert

Contact : metmap@orbifly.com




SOURCES & CREDITS :

   NOAA       Earth
Advisory